ADDS TAF Data INFO
IDs: Format: Raw Decoded Include METARs

Data at: 2008 UTC 19 Oct 2017

KTPA 191729Z 1918/2018 04008G17KT P6SM SCT025 SCT250
  FM200000 04009KT P6SM FEW040 SCT250
  FM200900 03005KT P6SM SCT015 SCT250
  FM201400 05011KT P6SM SCT025 SCT250